createdAt,value
2023-05-14T00:03:57.108Z,4.4
2023-05-14T00:09:03.063Z,4.2
2023-05-14T00:14:09.148Z,4.1
2023-05-14T00:19:15.459Z,4.2
2023-05-14T00:24:21.334Z,4.2
2023-05-14T00:29:27.456Z,4.2
2023-05-14T00:34:33.533Z,4.1
2023-05-14T00:39:39.639Z,4.1
2023-05-14T00:44:45.726Z,4
2023-05-14T00:49:51.813Z,4.1
2023-05-14T00:54:57.923Z,4.1
2023-05-14T01:00:03.996Z,4.2
2023-05-14T01:05:10.144Z,4.1
2023-05-14T01:10:16.218Z,4
2023-05-14T01:15:22.345Z,4.1
2023-05-14T01:20:28.435Z,3.9
2023-05-14T01:25:34.520Z,4
2023-05-14T01:30:40.696Z,3.7
2023-05-14T01:35:46.676Z,3.6
2023-05-14T01:40:52.901Z,3.5
2023-05-14T01:45:59.055Z,3.6
2023-05-14T01:51:04.970Z,3.6
2023-05-14T01:56:11.119Z,3.7
2023-05-14T02:01:17.484Z,3.8
2023-05-14T02:06:24.244Z,3.9
2023-05-14T02:11:29.428Z,4
2023-05-14T02:16:35.441Z,3.8
2023-05-14T02:21:41.485Z,3.9
2023-05-14T02:26:47.591Z,3.8
2023-05-14T02:31:53.749Z,4
2023-05-14T02:36:59.798Z,3.9
2023-05-14T02:42:05.885Z,3.9
2023-05-14T02:47:12.088Z,3.9
2023-05-14T02:52:18.067Z,3.9
2023-05-14T02:57:24.176Z,3.8
2023-05-14T03:02:30.316Z,3.8
2023-05-14T03:07:36.370Z,3.8
2023-05-14T03:12:42.469Z,3.8
2023-05-14T03:17:48.570Z,3.8
2023-05-14T03:22:54.685Z,3.8
2023-05-14T03:28:00.968Z,3.8
2023-05-14T03:33:07.005Z,3.8
2023-05-14T03:38:12.916Z,3.7
2023-05-14T03:43:19.158Z,3.7
2023-05-14T03:48:25.130Z,3.5
2023-05-14T03:53:31.211Z,3.7
2023-05-14T03:58:37.295Z,3.7
2023-05-14T04:03:43.520Z,3.7
2023-05-14T04:08:49.466Z,3.6
2023-05-14T04:13:55.612Z,3.4
2023-05-14T04:19:01.675Z,3.5
2023-05-14T04:24:07.780Z,3.4
2023-05-14T04:29:13.873Z,3.4
2023-05-14T04:34:19.974Z,3.4
2023-05-14T04:39:26.061Z,3.4
2023-05-14T04:44:32.169Z,3.5
2023-05-14T04:49:38.229Z,3.9
2023-05-14T04:54:44.380Z,4
2023-05-14T04:59:50.546Z,4
2023-05-14T05:04:56.525Z,4
2023-05-14T05:10:02.621Z,4
2023-05-14T05:15:08.711Z,4.1
2023-05-14T05:20:14.809Z,4.1
2023-05-14T05:25:20.898Z,4
2023-05-14T05:30:27.002Z,4.1
2023-05-14T05:35:33.208Z,4.3
2023-05-14T05:40:39.218Z,4.5
2023-05-14T05:45:45.267Z,4.8
2023-05-14T05:50:51.488Z,4.9
2023-05-14T05:55:57.467Z,5.1
2023-05-14T06:01:03.552Z,5
2023-05-14T06:06:09.625Z,4.8
2023-05-14T06:11:15.996Z,5
2023-05-14T06:16:21.849Z,5.3
2023-05-14T06:21:27.942Z,5.3
2023-05-14T06:26:34.037Z,5.3
2023-05-14T06:31:40.172Z,5.3
2023-05-14T06:36:46.230Z,5.6
2023-05-14T06:41:52.299Z,5.9
2023-05-14T06:46:58.415Z,6.2
2023-05-14T06:52:04.605Z,6.9
2023-05-14T06:57:16.220Z,9
2023-05-14T07:02:22.352Z,8.5
2023-05-14T07:07:28.542Z,7.6
2023-05-14T07:12:34.503Z,7.4
2023-05-14T07:17:40.643Z,7.2
2023-05-14T07:22:46.867Z,6.5
2023-05-14T07:27:52.800Z,6.5
2023-05-14T07:32:58.924Z,6.2
2023-05-14T07:38:05.019Z,6.8
2023-05-14T07:43:11.349Z,6.2
2023-05-14T07:48:17.334Z,5.7
2023-05-14T07:53:24.451Z,5.5
2023-05-14T07:58:30.389Z,5.2
2023-05-14T08:03:35.524Z,5.2
2023-05-14T08:08:41.687Z,5.1
2023-05-14T08:13:47.658Z,5.1
2023-05-14T08:18:53.770Z,4.9
2023-05-14T08:23:59.828Z,4.8
2023-05-14T08:29:05.924Z,5.3
2023-05-14T08:34:12.031Z,5.5
2023-05-14T08:39:18.120Z,5.7
2023-05-14T08:44:24.229Z,5.7
2023-05-14T08:49:30.389Z,6
2023-05-14T08:54:36.510Z,6.8
2023-05-14T08:59:42.511Z,8.2
2023-05-14T09:04:48.785Z,11.7
2023-05-14T09:09:54.712Z,11
2023-05-14T09:15:00.899Z,11.2
2023-05-14T09:20:06.872Z,9.8
2023-05-14T09:25:13.013Z,8.1
2023-05-14T09:30:19.074Z,7.9
2023-05-14T09:35:25.168Z,6.9
2023-05-14T09:40:31.250Z,6.5
2023-05-14T09:45:37.372Z,6.6
2023-05-14T09:50:43.456Z,6.8
2023-05-14T09:55:49.531Z,6.8
2023-05-14T10:00:55.883Z,7.7
2023-05-14T10:06:01.731Z,8.3
2023-05-14T10:11:07.849Z,7.3
2023-05-14T10:16:13.920Z,7
2023-05-14T10:21:20.123Z,7.4
2023-05-14T10:26:26.102Z,7
2023-05-14T10:31:32.199Z,6.9
2023-05-14T10:36:38.290Z,6.7
2023-05-14T10:41:44.418Z,6.5
2023-05-14T10:46:50.506Z,6.2
2023-05-14T10:51:56.567Z,6.3
2023-05-14T10:57:02.673Z,6.8
2023-05-14T11:02:08.874Z,6.9
2023-05-14T11:07:15.004Z,6.8
2023-05-14T11:12:20.951Z,7.8
2023-05-14T11:17:27.126Z,9.2
2023-05-14T11:22:33.299Z,8.7
2023-05-14T11:27:39.244Z,8
2023-05-14T11:32:45.497Z,8.4
2023-05-14T11:37:51.481Z,9.4
2023-05-14T11:42:57.533Z,9.9
2023-05-14T11:48:03.725Z,9.5
2023-05-14T11:53:09.746Z,9.4
2023-05-14T11:58:15.824Z,8.8
2023-05-14T12:03:22.148Z,9
2023-05-14T12:08:27.994Z,9.1
2023-05-14T12:13:34.108Z,9.3
2023-05-14T12:18:40.352Z,10.2
2023-05-14T12:23:46.441Z,10.5
2023-05-14T12:28:52.396Z,10.5
2023-05-14T12:33:58.498Z,10.1
2023-05-14T12:39:04.579Z,9.3
2023-05-14T12:44:10.642Z,9
2023-05-14T12:49:16.911Z,9.1
2023-05-14T12:54:22.859Z,9.3
2023-05-14T12:59:28.941Z,9.3
2023-05-14T13:04:35.223Z,9.4
2023-05-14T13:09:41.142Z,10
2023-05-14T13:14:47.224Z,10.6
2023-05-14T13:19:53.478Z,10.9
2023-05-14T13:24:59.421Z,10.5
2023-05-14T13:30:05.615Z,10.5
2023-05-14T13:35:11.597Z,10.8
2023-05-14T13:40:17.691Z,11.6
2023-05-14T13:45:23.951Z,11.2
2023-05-14T13:50:29.906Z,11.2
2023-05-14T13:55:35.965Z,10.8
2023-05-14T14:00:42.067Z,10.6
2023-05-14T14:05:48.155Z,11.2
2023-05-14T14:10:54.279Z,12
2023-05-14T14:16:00.434Z,11.8
2023-05-14T14:21:06.473Z,11.3
2023-05-14T14:26:12.545Z,10.7
2023-05-14T14:31:18.671Z,10.2
2023-05-14T14:36:24.731Z,10.2
2023-05-14T14:41:30.958Z,10.1
2023-05-14T14:46:36.962Z,9.5
2023-05-14T14:51:43.011Z,8.2
2023-05-14T14:56:49.125Z,7.2
2023-05-14T15:01:55.209Z,7.2
2023-05-14T15:07:01.303Z,7.4
2023-05-14T15:12:07.561Z,7.8
2023-05-14T15:17:13.546Z,8
2023-05-14T15:22:19.597Z,8.2
2023-05-14T15:27:25.704Z,7.9
2023-05-14T15:32:31.812Z,8.5
2023-05-14T15:37:37.870Z,8.7
2023-05-14T15:42:44.010Z,9.4
2023-05-14T15:47:50.099Z,9.4
2023-05-14T15:52:56.148Z,9.5
2023-05-14T15:58:02.235Z,9.6
2023-05-14T16:03:08.385Z,9.6
2023-05-14T16:08:14.419Z,9.5
2023-05-14T16:13:20.695Z,9.2
2023-05-14T16:18:26.684Z,8.5
2023-05-14T16:23:32.713Z,8.9
2023-05-14T16:28:38.950Z,8.7
2023-05-14T16:33:45.134Z,9
2023-05-14T16:39:06.543Z,9.2
2023-05-14T16:43:57.085Z,9
2023-05-14T16:49:03.363Z,8.9
2023-05-14T16:54:09.716Z,9.1
2023-05-14T16:59:15.365Z,8.8
2023-05-14T17:04:21.499Z,8.7
2023-05-14T17:09:27.563Z,8.5
2023-05-14T17:14:33.771Z,8.5
2023-05-14T17:19:39.765Z,8.4
2023-05-14T17:24:45.844Z,8.3
2023-05-14T17:29:51.941Z,8.1
2023-05-14T17:34:58.044Z,7.3
2023-05-14T17:40:04.120Z,6.7
2023-05-14T17:45:10.221Z,6.5
2023-05-14T17:50:16.431Z,6.2
2023-05-14T17:55:22.550Z,6.3
2023-05-14T18:00:28.498Z,6.4
2023-05-14T18:05:34.608Z,6.3
2023-05-14T18:10:40.698Z,6.6
2023-05-14T18:15:47.102Z,6.7
2023-05-14T18:20:52.892Z,6.4
2023-05-14T18:25:58.974Z,6.2
2023-05-14T18:31:05.322Z,6.3
2023-05-14T18:36:11.175Z,6.3
2023-05-14T18:41:17.300Z,6.2
2023-05-14T18:46:23.382Z,6.1
2023-05-14T18:51:29.465Z,6.1
2023-05-14T18:56:35.546Z,6.1
2023-05-14T19:01:41.699Z,5.8
2023-05-14T19:06:47.752Z,5.8
2023-05-14T19:11:54.001Z,5.5
2023-05-14T19:16:59.958Z,5.5
2023-05-14T19:22:06.039Z,5.4
2023-05-14T19:27:12.108Z,5.3
2023-05-14T19:32:18.201Z,5.3
2023-05-14T19:37:24.304Z,5.2
2023-05-14T19:42:30.390Z,5.1
2023-05-14T19:47:36.562Z,5.2
2023-05-14T19:52:42.590Z,5.1
2023-05-14T19:57:48.679Z,5.1
2023-05-14T20:02:54.887Z,5
2023-05-14T20:08:00.926Z,4.9
2023-05-14T20:13:06.961Z,4.7
2023-05-14T20:18:13.063Z,4.7
2023-05-14T20:23:19.159Z,4.7
2023-05-14T20:28:25.249Z,4.8
2023-05-14T20:33:31.340Z,4.8
2023-05-14T20:38:37.436Z,4.7
2023-05-14T20:43:43.532Z,4.6
2023-05-14T20:48:49.610Z,4.6
2023-05-14T20:53:55.841Z,4.8
2023-05-14T20:59:01.809Z,4.7
2023-05-14T21:04:08.157Z,4.7
2023-05-14T21:09:14.021Z,4.6
2023-05-14T21:14:20.169Z,4.4
2023-05-14T21:19:26.177Z,4.3
2023-05-14T21:24:32.392Z,4.1
2023-05-14T21:29:38.361Z,4
2023-05-14T21:34:44.476Z,4
2023-05-14T21:39:50.544Z,3.9
2023-05-14T21:44:56.648Z,3.8
2023-05-14T21:50:02.736Z,3.8
2023-05-14T21:55:08.835Z,3.8
2023-05-14T22:00:14.920Z,3.6
2023-05-14T22:05:21.042Z,3.8
2023-05-14T22:11:01.910Z,4
2023-05-14T22:15:33.229Z,3.8
2023-05-14T22:20:39.386Z,4.2
2023-05-14T22:25:45.406Z,4.4
2023-05-14T22:30:51.543Z,4.4
2023-05-14T22:35:57.623Z,4.6
2023-05-14T22:41:10.765Z,4.7
2023-05-14T22:46:09.814Z,4.6
2023-05-14T22:51:15.875Z,4.5
2023-05-14T22:56:25.023Z,4.5
2023-05-14T23:01:28.340Z,4.5
2023-05-14T23:06:34.200Z,4.6
2023-05-14T23:11:40.295Z,4.6
2023-05-14T23:16:46.404Z,4.5
2023-05-14T23:21:52.712Z,4.5
2023-05-14T23:26:58.570Z,4.3
2023-05-14T23:32:05.653Z,4.4
2023-05-14T23:37:10.739Z,4.4
2023-05-14T23:42:16.812Z,4.4
2023-05-14T23:47:22.959Z,4.5
2023-05-14T23:52:32.020Z,4.5
2023-05-14T23:57:40.765Z,4.4
